createdAt,value
2022-09-18T00:01:47.680Z,0.30
2022-09-18T00:04:17.126Z,0.10
2022-09-18T00:06:47.121Z,0.20
2022-09-18T00:09:16.846Z,0.20
2022-09-18T00:11:50.063Z,0.20
2022-09-18T00:14:23.797Z,0.00
2022-09-18T00:16:54.150Z,0.10
2022-09-18T00:19:23.764Z,0.20
2022-09-18T00:21:53.775Z,0.30
2022-09-18T00:24:24.279Z,0.30
2022-09-18T00:26:53.743Z,0.23
2022-09-18T00:29:23.177Z,0.10
2022-09-18T00:31:52.692Z,0.20
2022-09-18T00:34:22.429Z,0.13
2022-09-18T00:36:51.897Z,0.20
2022-09-18T00:39:21.345Z,0.20
2022-09-18T00:41:51.495Z,0.20
2022-09-18T00:44:42.982Z,0.10
2022-09-18T00:47:19.613Z,0.20
2022-09-18T00:50:17.209Z,0.20
2022-09-18T00:53:03.215Z,0.20
2022-09-18T00:55:38.590Z,0.20
2022-09-18T00:58:08.484Z,0.20
2022-09-18T01:00:39.540Z,0.30
2022-09-18T01:03:09.059Z,0.20
2022-09-18T01:06:00.717Z,0.20
2022-09-18T01:09:04.151Z,0.20
2022-09-18T01:11:56.209Z,0.20
2022-09-18T01:15:17.765Z,0.20
2022-09-18T01:17:57.530Z,0.30
2022-09-18T01:20:58.860Z,0.30
2022-09-18T01:24:07.750Z,0.20
2022-09-18T01:26:56.120Z,0.10
2022-09-18T01:29:47.984Z,0.17
2022-09-18T01:32:25.004Z,0.10
2022-09-18T01:35:40.052Z,0.10
2022-09-18T01:38:16.525Z,0.10
2022-09-18T01:40:55.875Z,0.20
2022-09-18T01:43:30.420Z,0.20
2022-09-18T01:46:04.783Z,0.20
2022-09-18T01:48:41.872Z,0.20
2022-09-18T01:51:27.648Z,0.10
2022-09-18T01:54:10.921Z,0.10
2022-09-18T01:56:45.060Z,0.20
2022-09-18T01:59:22.328Z,0.20
2022-09-18T02:01:54.157Z,0.20
2022-09-18T02:04:28.469Z,0.20
2022-09-18T02:07:17.624Z,0.30
2022-09-18T02:09:47.506Z,0.30
2022-09-18T02:12:21.836Z,0.23
2022-09-18T02:14:56.233Z,0.20
2022-09-18T02:17:30.328Z,0.20
2022-09-18T02:20:06.290Z,0.47
2022-09-18T02:22:37.373Z,0.33
2022-09-18T02:25:11.594Z,0.20
2022-09-18T02:27:43.871Z,0.20
2022-09-18T02:30:14.220Z,0.30
2022-09-18T02:32:44.445Z,0.40
2022-09-18T02:35:15.452Z,0.50
2022-09-18T02:38:07.690Z,0.50
2022-09-18T02:41:02.786Z,0.40
2022-09-18T02:43:59.496Z,0.33
2022-09-18T02:46:42.394Z,0.70
2022-09-18T02:49:22.311Z,0.63
2022-09-18T02:51:59.443Z,0.40
2022-09-18T02:54:44.796Z,0.80
2022-09-18T02:57:21.622Z,0.30
2022-09-18T02:59:55.724Z,0.37
2022-09-18T03:02:26.970Z,0.80
2022-09-18T03:04:56.835Z,0.70
2022-09-18T03:07:26.437Z,0.53
2022-09-18T03:09:55.901Z,0.83
2022-09-18T03:12:25.375Z,0.67
2022-09-18T03:14:55.102Z,0.90
2022-09-18T03:17:24.570Z,0.90
2022-09-18T03:19:54.478Z,0.57
2022-09-18T03:22:23.946Z,0.80
2022-09-18T03:24:53.389Z,0.50
2022-09-18T03:27:22.857Z,0.90
2022-09-18T03:29:52.301Z,0.60
2022-09-18T03:32:21.774Z,0.50
2022-09-18T03:34:51.216Z,0.57
2022-09-18T03:37:20.693Z,0.50
2022-09-18T03:39:50.118Z,0.70
2022-09-18T03:42:19.597Z,0.50
2022-09-18T03:44:49.046Z,0.50
2022-09-18T03:47:18.625Z,0.80
2022-09-18T03:49:48.065Z,0.77
2022-09-18T03:52:17.570Z,0.50
2022-09-18T03:54:47.287Z,0.40
2022-09-18T03:57:16.753Z,0.60
2022-09-18T03:59:46.230Z,0.70
2022-09-18T04:02:16.054Z,0.73
2022-09-18T04:04:45.491Z,0.47
2022-09-18T04:07:14.959Z,0.53
2022-09-18T04:09:45.188Z,0.80
2022-09-18T04:12:14.650Z,0.50
2022-09-18T04:14:44.090Z,0.50
2022-09-18T04:17:13.559Z,0.40
2022-09-18T04:19:43.069Z,0.60
2022-09-18T04:22:12.533Z,0.70
2022-09-18T04:24:42.153Z,0.57
2022-09-18T04:27:11.687Z,0.60
2022-09-18T04:29:41.130Z,0.43
2022-09-18T04:32:10.604Z,0.37
2022-09-18T04:34:40.049Z,0.47
2022-09-18T04:37:10.503Z,0.50
2022-09-18T04:39:40.312Z,0.90
2022-09-18T04:42:09.772Z,0.50
2022-09-18T04:44:39.216Z,0.30
2022-09-18T04:47:08.689Z,0.40
2022-09-18T04:49:38.136Z,0.53
2022-09-18T04:52:07.597Z,0.70
2022-09-18T04:54:38.015Z,0.50
2022-09-18T04:57:07.531Z,0.30
2022-09-18T04:59:36.994Z,0.40
2022-09-18T05:02:06.700Z,0.20
2022-09-18T05:04:36.131Z,0.70
2022-09-18T05:07:06.260Z,0.53
2022-09-18T05:09:36.177Z,0.47
2022-09-18T05:12:06.847Z,0.47
2022-09-18T05:14:36.363Z,0.50
2022-09-18T05:17:05.987Z,0.50
2022-09-18T05:19:35.440Z,0.60
2022-09-18T05:22:04.892Z,0.50
2022-09-18T05:24:34.345Z,0.60
2022-09-18T05:27:03.973Z,0.70
2022-09-18T05:29:33.490Z,0.53
2022-09-18T05:32:03.190Z,0.80
2022-09-18T05:34:33.163Z,0.50
2022-09-18T05:37:02.616Z,0.60
2022-09-18T05:39:32.065Z,0.90
2022-09-18T05:42:01.527Z,0.50
2022-09-18T05:44:31.053Z,0.60
2022-09-18T05:47:01.336Z,0.40
2022-09-18T05:49:31.020Z,0.50
2022-09-18T05:52:00.474Z,0.40
2022-09-18T05:54:29.926Z,0.60
2022-09-18T05:56:59.952Z,0.50
2022-09-18T05:59:29.414Z,0.50
2022-09-18T06:01:58.916Z,0.60
2022-09-18T06:04:28.398Z,0.60
2022-09-18T06:06:57.852Z,0.70
2022-09-18T06:09:27.768Z,0.80
2022-09-18T06:11:57.900Z,0.50
2022-09-18T06:14:27.347Z,0.70
2022-09-18T06:16:56.809Z,0.73
2022-09-18T06:19:26.261Z,0.63
2022-09-18T06:21:55.717Z,0.53
2022-09-18T06:24:25.170Z,0.73
2022-09-18T06:26:54.627Z,0.90
2022-09-18T06:29:25.615Z,0.90
2022-09-18T06:31:55.164Z,0.70
2022-09-18T06:34:24.871Z,0.80
2022-09-18T06:36:54.334Z,0.90
2022-09-18T06:39:23.785Z,0.93
2022-09-18T06:41:53.940Z,0.80
2022-09-18T06:44:23.388Z,0.80
2022-09-18T06:46:53.017Z,0.83
2022-09-18T06:49:30.574Z,0.97
2022-09-18T06:52:00.085Z,0.93
2022-09-18T06:54:29.540Z,0.90
2022-09-18T06:56:59.008Z,0.80
2022-09-18T06:59:28.451Z,0.63
2022-09-18T07:01:57.966Z,0.60
2022-09-18T07:04:27.433Z,0.70
2022-09-18T07:06:56.896Z,0.90
2022-09-18T07:09:26.339Z,0.70
2022-09-18T07:11:56.777Z,0.80
2022-09-18T07:14:26.364Z,0.80
2022-09-18T07:16:55.836Z,0.70
2022-09-18T07:19:25.270Z,0.83
2022-09-18T07:21:54.904Z,0.83
2022-09-18T07:24:24.346Z,0.60
2022-09-18T07:26:53.811Z,0.50
2022-09-18T07:29:23.324Z,0.67
2022-09-18T07:31:52.786Z,0.57
2022-09-18T07:34:22.229Z,0.80
2022-09-18T07:36:52.334Z,0.80
2022-09-18T07:39:21.767Z,0.60
2022-09-18T07:41:51.229Z,0.73
2022-09-18T07:44:20.793Z,0.73
2022-09-18T07:46:51.928Z,0.60
2022-09-18T07:49:21.480Z,0.97
2022-09-18T07:51:50.935Z,0.60
2022-09-18T07:54:20.611Z,0.70
2022-09-18T07:56:50.080Z,0.77
2022-09-18T07:59:19.528Z,1.00
2022-09-18T08:01:49.580Z,0.60
2022-09-18T08:04:19.047Z,0.50
2022-09-18T08:06:57.830Z,0.37
2022-09-18T08:09:27.274Z,0.60
2022-09-18T08:11:56.803Z,0.53
2022-09-18T08:14:28.914Z,0.53
2022-09-18T08:16:57.971Z,0.80
2022-09-18T08:19:27.412Z,0.40
2022-09-18T08:21:56.866Z,0.63
2022-09-18T08:24:26.319Z,0.60
2022-09-18T08:26:57.472Z,0.67
2022-09-18T08:29:26.977Z,0.87
2022-09-18T08:31:56.974Z,0.60
2022-09-18T08:34:27.235Z,0.80
2022-09-18T08:36:57.653Z,0.53
2022-09-18T08:39:27.764Z,0.97
2022-09-18T08:42:33.404Z,0.80
2022-09-18T08:45:22.972Z,0.80
2022-09-18T08:48:02.781Z,0.50
2022-09-18T08:50:38.764Z,0.63
2022-09-18T08:53:23.985Z,0.70
2022-09-18T08:55:56.451Z,0.60
2022-09-18T08:58:42.114Z,0.50
2022-09-18T09:01:16.309Z,0.77
2022-09-18T09:04:02.376Z,0.50
2022-09-18T09:07:06.437Z,0.50
2022-09-18T09:10:04.257Z,0.40
2022-09-18T09:13:06.916Z,0.70
2022-09-18T09:16:01.909Z,0.70
2022-09-18T09:19:04.705Z,0.80
2022-09-18T09:22:04.144Z,0.87
2022-09-18T09:24:37.813Z,1.00
2022-09-18T09:27:20.212Z,0.60
2022-09-18T09:29:54.398Z,0.53
2022-09-18T09:32:34.168Z,0.50
2022-09-18T09:35:20.136Z,0.60
2022-09-18T09:37:53.063Z,0.60
2022-09-18T09:40:33.003Z,0.57
2022-09-18T09:43:34.477Z,0.50
2022-09-18T09:46:08.558Z,0.40
2022-09-18T09:49:09.951Z,0.30
2022-09-18T09:52:09.121Z,0.50
2022-09-18T09:54:36.378Z,0.67
2022-09-18T09:57:39.192Z,0.70
2022-09-18T10:00:15.451Z,0.50
2022-09-18T10:03:07.103Z,0.40
2022-09-18T10:05:50.339Z,0.80
2022-09-18T10:08:39.361Z,0.90
2022-09-18T10:11:12.181Z,0.63
2022-09-18T10:14:03.703Z,0.50
2022-09-18T10:16:46.042Z,0.50
2022-09-18T10:19:20.801Z,0.60
2022-09-18T10:21:53.946Z,0.60
2022-09-18T10:24:49.047Z,0.63
2022-09-18T10:27:19.858Z,0.60
2022-09-18T10:29:49.381Z,0.50
2022-09-18T10:32:37.584Z,0.60
2022-09-18T10:35:34.068Z,0.50
2022-09-18T10:38:03.552Z,0.40
2022-09-18T10:40:41.133Z,0.63
2022-09-18T10:43:19.794Z,0.40
2022-09-18T10:45:56.217Z,0.50
2022-09-18T10:48:27.617Z,0.30
2022-09-18T10:51:01.040Z,0.57
2022-09-18T10:53:38.594Z,0.70
2022-09-18T10:56:18.772Z,0.57
2022-09-18T10:58:48.566Z,0.27
2022-09-18T11:01:18.426Z,0.73
2022-09-18T11:04:06.756Z,0.50
2022-09-18T11:06:39.382Z,0.30
2022-09-18T11:09:12.201Z,0.30
2022-09-18T11:11:49.908Z,0.40
2022-09-18T11:14:30.089Z,0.57
2022-09-18T11:17:03.047Z,0.60
2022-09-18T11:19:38.494Z,0.40
2022-09-18T11:22:11.887Z,0.60
2022-09-18T11:24:46.634Z,0.60
2022-09-18T11:27:24.117Z,0.57
2022-09-18T11:29:53.851Z,0.60
2022-09-18T11:32:31.816Z,0.40
2022-09-18T11:35:07.914Z,0.50
2022-09-18T11:37:40.841Z,0.90
2022-09-18T11:40:26.468Z,0.90
2022-09-18T11:42:57.525Z,0.40
2022-09-18T11:45:50.551Z,0.43
2022-09-18T11:48:27.495Z,0.53
2022-09-18T11:51:01.608Z,0.40
2022-09-18T11:53:38.461Z,0.50
2022-09-18T11:56:18.052Z,0.30
2022-09-18T11:59:07.531Z,0.23
2022-09-18T12:01:47.274Z,0.50
2022-09-18T12:04:21.401Z,0.40
2022-09-18T12:07:39.926Z,0.40
2022-09-18T12:10:47.355Z,0.40
2022-09-18T12:13:27.111Z,0.30
2022-09-18T12:16:04.299Z,0.27
2022-09-18T12:18:41.552Z,0.40
2022-09-18T12:21:15.547Z,0.23
2022-09-18T12:23:45.015Z,0.40
2022-09-18T12:26:33.712Z,0.50
2022-09-18T12:29:34.257Z,0.30
2022-09-18T12:32:32.010Z,0.40
2022-09-18T12:35:35.461Z,0.47
2022-09-18T12:38:24.445Z,0.40
2022-09-18T12:41:29.054Z,0.33
2022-09-18T12:44:14.952Z,0.30
2022-09-18T12:47:00.965Z,1.10
2022-09-18T12:49:52.747Z,0.47
2022-09-18T12:53:06.650Z,0.30
2022-09-18T12:55:41.985Z,0.50
2022-09-18T12:58:30.863Z,0.40
2022-09-18T13:01:05.178Z,0.10
2022-09-18T13:03:39.536Z,0.30
2022-09-18T13:06:16.238Z,0.10
2022-09-18T13:08:56.296Z,0.30
2022-09-18T13:11:39.410Z,0.30
2022-09-18T13:14:16.028Z,0.23
2022-09-18T13:16:56.754Z,0.30
2022-09-18T13:19:42.421Z,0.30
2022-09-18T13:22:19.490Z,0.30
2022-09-18T13:24:54.383Z,0.30
2022-09-18T13:27:26.648Z,0.60
2022-09-18T13:30:00.051Z,0.37
2022-09-18T13:32:41.995Z,0.40
2022-09-18T13:35:27.509Z,0.60
2022-09-18T13:38:22.580Z,0.47
2022-09-18T13:41:02.434Z,0.30
2022-09-18T13:43:39.143Z,0.40
2022-09-18T13:46:12.017Z,0.30
2022-09-18T13:48:48.965Z,0.27
2022-09-18T13:51:36.151Z,0.20
2022-09-18T13:54:16.940Z,0.30
2022-09-18T13:57:13.343Z,0.33
2022-09-18T13:59:55.761Z,0.30
2022-09-18T14:02:35.453Z,0.30
2022-09-18T14:05:29.495Z,0.33
2022-09-18T14:08:22.752Z,0.23
2022-09-18T14:11:15.386Z,0.53
2022-09-18T14:13:58.133Z,0.30
2022-09-18T14:16:36.515Z,0.20
2022-09-18T14:19:25.554Z,0.40
2022-09-18T14:21:55.302Z,0.30
2022-09-18T14:24:53.357Z,0.40
2022-09-18T14:27:42.343Z,0.30
2022-09-18T14:30:16.388Z,0.90
2022-09-18T14:32:56.196Z,0.40
2022-09-18T14:35:57.110Z,0.40
2022-09-18T14:38:36.745Z,0.30
2022-09-18T14:41:21.908Z,0.20
2022-09-18T14:44:04.159Z,0.20
2022-09-18T14:46:34.255Z,0.30
2022-09-18T14:49:03.867Z,0.23
2022-09-18T14:51:49.337Z,0.20
2022-09-18T14:54:08.673Z,0.30
2022-09-18T14:56:39.379Z,0.50
2022-09-18T14:59:13.003Z,0.30
2022-09-18T15:01:42.809Z,0.30
2022-09-18T15:04:23.663Z,0.20
2022-09-18T15:06:55.505Z,0.30
2022-09-18T15:09:35.274Z,0.30
2022-09-18T15:12:05.007Z,0.40
2022-09-18T15:14:46.837Z,0.20
2022-09-18T15:17:30.853Z,0.20
2022-09-18T15:20:16.574Z,0.30
2022-09-18T15:22:46.051Z,0.50
2022-09-18T15:25:22.003Z,0.30
2022-09-18T15:27:54.770Z,0.20
2022-09-18T15:30:26.129Z,0.40
2022-09-18T15:33:03.617Z,0.30
2022-09-18T15:35:37.370Z,0.30
2022-09-18T15:38:11.430Z,0.40
2022-09-18T15:40:41.682Z,0.40
2022-09-18T15:43:35.785Z,0.30
2022-09-18T15:46:09.582Z,0.30
2022-09-18T15:48:47.652Z,0.30
2022-09-18T15:51:38.668Z,0.30
2022-09-18T15:54:21.907Z,0.20
2022-09-18T15:56:55.956Z,0.30
2022-09-18T15:59:35.789Z,0.40
2022-09-18T16:02:09.901Z,0.30
2022-09-18T16:04:39.383Z,0.20
2022-09-18T16:07:29.468Z,0.23
2022-09-18T16:09:58.936Z,0.30
2022-09-18T16:12:39.797Z,0.60
2022-09-18T16:15:20.039Z,0.27
2022-09-18T16:18:27.091Z,0.63
2022-09-18T16:21:01.657Z,0.40
2022-09-18T16:23:54.755Z,0.30
2022-09-18T16:26:31.709Z,0.57
2022-09-18T16:29:06.211Z,0.30
2022-09-18T16:31:38.140Z,0.30
2022-09-18T16:34:27.518Z,0.20
2022-09-18T16:36:57.960Z,0.30
2022-09-18T16:39:28.539Z,0.20
2022-09-18T16:41:57.998Z,0.40
2022-09-18T16:44:27.438Z,0.17
2022-09-18T16:47:09.813Z,0.37
2022-09-18T16:49:46.811Z,0.20
2022-09-18T16:52:16.714Z,0.43
2022-09-18T16:54:46.407Z,0.50
2022-09-18T16:57:20.728Z,0.70
2022-09-18T16:59:52.327Z,0.50
2022-09-18T17:02:26.081Z,0.20
2022-09-18T17:04:54.562Z,0.40
2022-09-18T17:07:24.258Z,0.30
2022-09-18T17:09:53.704Z,0.40
2022-09-18T17:12:23.440Z,0.40
2022-09-18T17:14:53.054Z,0.33
2022-09-18T17:17:22.957Z,0.50
2022-09-18T17:19:52.955Z,0.40
2022-09-18T17:22:22.837Z,0.40
2022-09-18T17:24:52.552Z,0.30
2022-09-18T17:27:24.057Z,0.50
2022-09-18T17:29:53.835Z,0.50
2022-09-18T17:32:23.447Z,0.43
2022-09-18T17:34:52.887Z,0.47
2022-09-18T17:37:22.351Z,0.47
2022-09-18T17:39:51.787Z,0.30
2022-09-18T17:42:21.253Z,0.30
2022-09-18T17:44:51.765Z,0.30
2022-09-18T17:47:21.404Z,0.20
2022-09-18T17:49:50.840Z,0.40
2022-09-18T17:52:20.308Z,0.30
2022-09-18T17:54:49.823Z,0.30
2022-09-18T17:57:19.296Z,0.50
2022-09-18T17:59:48.761Z,0.80
2022-09-18T18:02:18.333Z,0.67
2022-09-18T18:04:47.819Z,0.60
2022-09-18T18:07:17.357Z,0.43
2022-09-18T18:09:47.035Z,0.50
2022-09-18T18:12:16.499Z,0.40
2022-09-18T18:14:46.220Z,0.40
2022-09-18T18:17:15.679Z,0.60
2022-09-18T18:19:45.510Z,0.40
2022-09-18T18:22:15.050Z,0.30
2022-09-18T18:24:45.092Z,0.50
2022-09-18T18:27:14.548Z,0.60
2022-09-18T18:29:44.466Z,0.40
2022-09-18T18:32:14.489Z,0.60
2022-09-18T18:34:43.974Z,0.60
2022-09-18T18:37:13.434Z,0.40
2022-09-18T18:39:42.890Z,0.60
2022-09-18T18:42:12.409Z,0.60
2022-09-18T18:44:42.229Z,0.50
2022-09-18T18:47:11.754Z,0.50
2022-09-18T18:49:41.211Z,0.40
2022-09-18T18:52:10.662Z,0.40
2022-09-18T18:54:40.552Z,0.30
2022-09-18T18:57:10.013Z,0.30
2022-09-18T18:59:40.131Z,0.40
2022-09-18T19:02:11.470Z,0.40
2022-09-18T19:04:42.574Z,0.33
2022-09-18T19:07:12.021Z,0.30
2022-09-18T19:09:41.469Z,0.40
2022-09-18T19:12:12.604Z,0.40
2022-09-18T19:14:42.057Z,0.40
2022-09-18T19:17:11.516Z,0.40
2022-09-18T19:19:42.235Z,0.30
2022-09-18T19:22:16.181Z,0.30
2022-09-18T19:24:45.624Z,0.40
2022-09-18T19:27:15.086Z,0.50
2022-09-18T19:29:44.548Z,0.20
2022-09-18T19:32:15.079Z,0.50
2022-09-18T19:34:44.529Z,0.30
2022-09-18T19:37:17.758Z,0.20
2022-09-18T19:39:46.967Z,0.23
2022-09-18T19:42:17.534Z,0.40
2022-09-18T19:44:54.321Z,0.33
2022-09-18T19:47:33.924Z,0.30
2022-09-18T19:50:06.156Z,0.20
2022-09-18T19:52:35.607Z,0.30
2022-09-18T19:55:05.195Z,0.30
2022-09-18T19:57:34.647Z,0.40
2022-09-18T20:00:05.570Z,0.20
2022-09-18T20:02:35.094Z,0.42
2022-09-18T20:05:05.880Z,0.40
2022-09-18T20:07:36.373Z,0.20
2022-09-18T20:10:10.875Z,0.30
2022-09-18T20:12:42.962Z,0.30
2022-09-18T20:15:13.189Z,0.23
2022-09-18T20:17:42.726Z,0.30
2022-09-18T20:20:16.323Z,0.50
2022-09-18T20:22:43.763Z,0.20
2022-09-18T20:25:13.676Z,0.20
2022-09-18T20:27:44.010Z,0.40
2022-09-18T20:30:14.266Z,0.33
2022-09-18T20:32:43.717Z,0.30
2022-09-18T20:35:13.174Z,0.20
2022-09-18T20:37:42.805Z,0.20
2022-09-18T20:40:13.157Z,0.23
2022-09-18T20:42:42.809Z,0.20
2022-09-18T20:45:12.250Z,0.20
2022-09-18T20:47:41.722Z,0.20
2022-09-18T20:50:14.380Z,0.30
2022-09-18T20:52:45.145Z,0.23
2022-09-18T20:55:18.868Z,0.30
2022-09-18T20:57:49.971Z,0.20
2022-09-18T21:00:19.483Z,0.20
2022-09-18T21:02:53.277Z,0.20
2022-09-18T21:05:22.723Z,0.27
2022-09-18T21:07:55.531Z,0.20
2022-09-18T21:10:24.976Z,0.30
2022-09-18T21:12:54.438Z,0.40
2022-09-18T21:15:23.885Z,0.40
2022-09-18T21:17:53.595Z,0.30
2022-09-18T21:20:23.708Z,0.40
2022-09-18T21:23:11.102Z,0.30
2022-09-18T21:25:40.549Z,0.20
2022-09-18T21:28:10.028Z,0.23
2022-09-18T21:30:39.461Z,0.30
2022-09-18T21:33:10.583Z,0.23
2022-09-18T21:35:41.668Z,0.30
2022-09-18T21:38:12.945Z,0.27
2022-09-18T21:40:43.100Z,0.20
2022-09-18T21:43:14.273Z,0.30
2022-09-18T21:45:43.888Z,0.40
2022-09-18T21:48:13.350Z,0.30
2022-09-18T21:50:43.065Z,0.20
2022-09-18T21:53:12.530Z,0.20
2022-09-18T21:55:41.981Z,0.20
2022-09-18T21:58:12.015Z,0.30
2022-09-18T22:00:41.503Z,0.30
2022-09-18T22:03:12.645Z,0.20
2022-09-18T22:05:42.256Z,0.27
2022-09-18T22:08:11.721Z,0.20
2022-09-18T22:10:41.232Z,0.20
2022-09-18T22:13:11.243Z,0.10
2022-09-18T22:15:40.686Z,0.10
2022-09-18T22:18:10.151Z,0.23
2022-09-18T22:20:39.605Z,0.20
2022-09-18T22:23:09.062Z,0.30
2022-09-18T22:25:40.280Z,0.20
2022-09-18T22:28:09.744Z,0.20
2022-09-18T22:30:39.866Z,0.20
2022-09-18T22:33:09.386Z,0.20
2022-09-18T22:35:38.835Z,0.27
2022-09-18T22:38:08.301Z,0.20
2022-09-18T22:40:37.805Z,0.40
2022-09-18T22:43:07.283Z,0.20
2022-09-18T22:45:36.727Z,0.30
2022-09-18T22:48:06.177Z,0.20
2022-09-18T22:50:36.099Z,0.23
2022-09-18T22:53:05.553Z,0.20
2022-09-18T22:55:35.672Z,0.20
2022-09-18T22:58:05.999Z,0.30
2022-09-18T23:00:35.617Z,0.40
2022-09-18T23:03:06.621Z,0.30
2022-09-18T23:05:39.749Z,0.30
2022-09-18T23:08:09.201Z,0.20
2022-09-18T23:10:39.137Z,0.30
2022-09-18T23:13:09.366Z,0.30
2022-09-18T23:15:39.187Z,0.30
2022-09-18T23:18:08.719Z,0.23
2022-09-18T23:20:38.172Z,0.17
2022-09-18T23:23:07.623Z,0.30
2022-09-18T23:25:39.961Z,0.23
2022-09-18T23:28:09.420Z,0.27
2022-09-18T23:30:39.070Z,0.30
2022-09-18T23:33:08.498Z,0.10
2022-09-18T23:35:37.948Z,0.30
2022-09-18T23:38:07.399Z,0.20
2022-09-18T23:40:36.948Z,0.23
2022-09-18T23:43:06.684Z,0.40
2022-09-18T23:45:36.127Z,0.30
2022-09-18T23:48:05.948Z,0.40
2022-09-18T23:50:35.392Z,0.37
2022-09-18T23:53:04.853Z,0.30
2022-09-18T23:55:34.296Z,0.27
2022-09-18T23:58:03.793Z,0.30
